Latest Weather Observations for Wadeye (Port Keats)

IDD60801

Issued at 4:35 pm CST Saturday 29 November 2014 (issued every 30 minutes, with the page automatically refreshed every 10 minutes)

About weather observations | Map of weather stations | Latest weather observations for NT | Other Formats
Station Details ID: 014948 Name: PORT KEATS AIRPORT Lat: -14.25 Lon: 129.53 Height: 28.0 m
Data from the previous 72 hours. | See also: Recent months at Wadeye (Port Keats)
Date/Time
CST
Temp
°C
App
Temp
°C
Dew
Point
Rel
Hum
%
Delta-T
°C
Wind Press
QNH
hPa
Press
MSL
hPa
Rain
since 9 am
mm
Dir
 
Spd
km/h
Gust
km/h
Spd
kts
Gust
kts
29/04:30pm 32.0 33.1 22.4 57 6.6 NNW 20 28 11 15 1004.7 1004.4 0.0
29/04:00pm 32.7 33.9 22.2 54 7.2 NNW 19 28 10 15 1004.4 1004.1 0.0
29/03:30pm 32.2 33.3 22.3 56 6.8 NNW 20 26 11 14 1004.5 1004.2 0.0
29/03:00pm 33.2 34.3 22.0 51 7.7 NW 19 26 10 14 1004.8 1004.5 0.0
29/02:30pm 32.9 34.6 23.0 56 6.8 NW 19 26 10 14 1005.2 1004.9 0.0
29/02:00pm 33.0 34.5 22.7 54 7.1 NNW 19 28 10 15 1005.5 1005.2 0.0
29/01:30pm 32.0 33.6 22.1 55 6.8 NW 17 26 9 14 1006.0 1005.7 0.0
29/01:00pm 32.5 34.3 22.6 56 6.8 WNW 17 26 9 14 1006.6 1006.3 0.0
29/12:30pm 32.3 34.9 23.3 59 6.2 WNW 15 26 8 14 1007.0 1006.8 0.0
29/12:00pm 32.4 35.3 23.1 58 6.4 NNW 13 26 7 14 1007.6 1007.4 0.0
29/11:30am 32.5 35.4 23.2 58 6.4 NNW 13 17 7 9 1008.2 1008.0 0.0
29/11:00am 32.0 34.6 22.7 58 6.4 NNW 13 17 7 9 1008.3 1008.1 0.0
29/10:30am 31.0 34.6 23.1 63 5.4 WNW 9 15 5 8 1008.7 1008.5 0.0
29/10:00am 30.8 33.9 22.9 62 5.4 NNW 11 15 6 8 1009.0 1008.8 0.0
29/09:30am 30.8 34.3 23.5 65 5.1 WNW 11 17 6 9 1009.1 1008.9 0.0
29/09:00am 29.7 34.4 23.9 71 4.0 N 6 9 3 5 1009.0 1008.8 0.0
29/08:30am 29.2 34.4 23.6 72 3.9 N 2 9 1 5 1008.9 1008.7 0.0
29/08:00am 28.2 34.0 24.0 78 2.9 CALM 0 0 0 0 1008.8 1008.6 0.0
29/07:30am 26.7 32.4 23.8 84 2.0 CALM 0 0 0 0 1008.7 1008.5 0.0
29/07:00am 25.5 31.5 24.3 93 0.8 CALM 0 0 0 0 1008.3 1008.1 0.0
29/06:30am 24.9 30.5 23.5 92 1.0 CALM 0 0 0 0 1008.0 1007.8 0.0
29/06:00am 24.9 30.5 23.5 92 1.0 CALM 0 0 0 0 1007.7 1007.5 0.0
29/05:30am 25.4 31.0 23.5 89 1.3 CALM 0 0 0 0 1007.2 1007.0 0.0
29/05:00am 25.7 31.4 23.7 89 1.4 CALM 0 0 0 0 1007.0 1006.8 0.0
29/04:30am 25.6 31.4 24.0 91 1.1 CALM 0 0 0 0 1006.8 1006.5 0.0
29/04:00am 25.6 31.3 23.8 90 1.2 CALM 0 0 0 0 1006.6 1006.3 0.0
29/03:30am 25.3 30.9 23.5 90 1.2 CALM 0 0 0 0 1006.6 1006.3 0.0
29/03:00am 25.5 31.1 23.6 89 1.3 CALM 0 0 0 0 1006.6 1006.3 0.0
29/02:30am 26.3 32.3 24.3 89 1.4 CALM 0 0 0 0 1006.5 1006.2 0.0
29/02:00am 25.1 30.5 23.3 90 1.2 CALM 0 0 0 0 1006.7 1006.4 0.0
29/01:30am 25.6 31.2 23.5 88 1.4 CALM 0 0 0 0 1006.9 1006.7 0.0
29/01:00am 26.1 31.7 23.6 86 1.7 CALM 0 0 0 0 1007.2 1007.0 0.0
29/12:30am 25.4 30.7 23.1 87 1.6 CALM 0 0 0 0 1007.7 1007.5 0.0
29/12:00am 26.1 31.8 23.8 87 1.6 CALM 0 0 0 0 1008.0 1007.8 0.0
 
Date/Time
CST
Temp
°C
App
Temp
°C
Dew
Point
Rel
Hum
%
Delta-T
°C
Wind Press
QNH
hPa
Press
MSL
hPa
Rain
since 9 am
mm
Dir
 
Spd
km/h
Gust
km/h
Spd
kts
Gust
kts
28/11:30pm 26.1 31.3 22.8 82 2.2 CALM 0 0 0 0 1008.3 1008.1 0.0
28/11:00pm 26.4 31.7 23.1 82 2.2 CALM 0 0 0 0 1008.4 1008.2 0.0
28/10:30pm 26.8 32.2 23.3 81 2.4 CALM 0 0 0 0 1008.5 1008.3 0.0
28/10:00pm 26.8 32.0 22.8 79 2.7 CALM 0 0 0 0 1008.4 1008.2 0.0
28/09:30pm 26.9 31.8 22.3 76 3.1 CALM 0 0 0 0 1008.3 1008.1 0.0
28/09:00pm 27.3 31.4 22.3 74 3.4 W 4 7 2 4 1008.0 1007.8 0.0
28/08:30pm 27.6 31.3 22.3 73 3.6 W 6 7 3 4 1007.7 1007.5 0.0
28/08:00pm 28.3 32.3 22.1 69 4.2 W 4 6 2 3 1007.4 1007.2 0.0
28/07:30pm 29.0 32.4 21.7 64 4.9 WNW 6 9 3 5 1007.2 1007.0 0.0
28/07:00pm 29.6 32.3 21.3 61 5.6 WNW 9 11 5 6 1006.9 1006.7 0.0
28/06:30pm 30.2 32.6 21.6 60 5.8 NW 11 15 6 8 1006.6 1006.3 0.0
28/06:00pm 30.1 32.3 21.2 59 6.0 WNW 11 17 6 9 1006.2 1005.9 0.0
28/05:30pm 30.8 33.4 21.9 59 6.0 WNW 11 17 6 9 1006.0 1005.7 0.0
28/05:00pm 31.3 33.2 22.0 57 6.3 NNW 15 19 8 10 1006.0 1005.7 0.0
28/04:30pm 32.2 34.7 21.7 54 7.1 NNW 11 15 6 8 1005.9 1005.6 0.0
28/04:00pm 31.5 33.9 22.2 57 6.3 NW 13 19 7 10 1006.0 1005.7 0.0
28/03:30pm 31.7 35.1 22.7 59 6.2 WNW 9 13 5 7 1006.2 1005.9 0.0
28/03:00pm 32.0 35.6 22.1 55 6.8 ENE 6 9 3 5 1006.7 1006.4 0.0
28/02:30pm 31.9 35.6 22.3 56 6.6 WSW 6 9 3 5 1007.0 1006.8 0.0
28/02:00pm 30.6 33.4 20.8 56 6.5 N 7 13 4 7 1007.6 1007.4 0.0
28/01:30pm 30.1 32.4 20.6 56 6.3 NW 9 15 5 8 1008.2 1008.0 0.0
28/01:00pm 29.9 33.6 22.3 63 5.2 NNW 6 11 3 6 1008.9 1008.7 0.0
28/12:30pm 28.8 31.2 21.6 65 4.8 N 11 17 6 9 1009.6 1009.4 0.0
28/12:00pm 28.5 30.8 22.0 68 4.4 N 13 17 7 9 1010.2 1010.0 0.0
28/11:30am 27.9 30.2 22.1 70 3.9 NNE 13 17 7 9 1010.8 1010.6 0.0
28/11:00am 29.1 29.6 20.8 61 5.5 E 19 28 10 15 1010.9 1010.7 0.0
28/10:30am 29.5 30.7 21.4 61 5.4 ENE 17 26 9 14 1011.2 1011.0 0.0
28/10:00am 29.8 31.4 22.8 66 4.8 E 19 28 10 15 1011.3 1011.1 0.0
28/09:30am 28.8 31.0 23.2 71 3.8 ENE 17 26 9 14 1011.4 1011.2 0.0
28/09:00am 30.0 33.5 24.2 71 4.0 E 13 15 7 8 1010.7 1010.5 0.8
28/08:30am 30.0 34.6 24.2 71 4.0 ENE 7 13 4 7 1010.1 1009.9 0.8
28/08:00am 29.5 34.4 23.7 71 4.0 SE 4 7 2 4 1009.7 1009.5 0.8
28/07:30am 28.2 32.7 24.0 78 2.9 SE 7 7 4 4 1009.6 1009.4 0.8
28/07:00am 25.9 31.6 23.8 88 1.4 CALM 0 0 0 0 1009.1 1008.9 0.8
28/06:30am 25.0 30.3 23.1 89 1.3 CALM 0 0 0 0 1008.9 1008.7 0.8
28/06:00am 25.8 30.3 23.7 88 1.4 SSE 6 7 3 4 1008.7 1008.5 0.8
28/05:30am 25.6 31.0 23.3 87 1.6 CALM 0 0 0 0 1008.8 1008.6 0.8
28/05:00am 25.5 30.6 23.4 88 1.4 SSE 2 7 1 4 1008.5 1008.3 0.8
28/04:30am 24.9 30.2 23.0 89 1.3 CALM 0 0 0 0 1008.0 1007.8 0.8
28/04:00am 24.7 29.8 22.6 88 1.4 CALM 0 6 0 3 1007.9 1007.7 0.8
28/03:30am 25.4 30.8 23.3 88 1.4 CALM 0 0 0 0 1007.7 1007.5 0.8
28/03:00am 25.0 29.2 23.1 89 1.3 SW 6 7 3 4 1007.9 1007.7 0.8
28/02:30am 24.6 29.6 23.2 92 1.0 SW 2 7 1 4 1007.9 1007.7 0.8
28/02:00am 24.8 30.3 23.4 92 1.0 CALM 0 0 0 0 1008.0 1007.8 0.8
28/01:30am 24.6 29.8 22.8 90 1.2 CALM 0 0 0 0 1008.3 1008.1 0.8
28/01:00am 25.1 30.4 23.0 88 1.4 CALM 0 0 0 0 1008.8 1008.6 0.8
28/12:30am 25.3 29.8 23.0 87 1.6 S 4 6 2 3 1009.2 1009.0 0.8
28/12:00am 25.5 30.5 23.2 87 1.6 S 2 7 1 4 1009.4 1009.2 0.8
 
Date/Time
CST
Temp
°C
App
Temp
°C
Dew
Point
Rel
Hum
%
Delta-T
°C
Wind Press
QNH
hPa
Press
MSL
hPa
Rain
since 9 am
mm
Dir
 
Spd
km/h
Gust
km/h
Spd
kts
Gust
kts
27/11:30pm 25.6 30.0 23.5 88 1.4 S 6 7 3 4 1009.6 1009.4 0.8
27/11:00pm 25.4 29.6 23.1 87 1.6 S 6 7 3 4 1009.3 1009.1 0.8
27/10:30pm 25.7 31.1 23.2 86 1.7 CALM 0 0 0 0 1008.8 1008.6 0.8
27/10:00pm 26.2 30.9 22.7 81 2.4 SSE 2 7 1 4 1008.6 1008.4 0.8
27/09:30pm 26.3 31.6 23.0 82 2.2 CALM 0 6 0 3 1008.5 1008.3 0.8
27/09:00pm 26.3 31.7 23.2 83 2.1 CALM 0 0 0 0 1008.4 1008.2 0.8
27/08:30pm 26.6 31.9 23.1 81 2.4 CALM 0 0 0 0 1008.1 1007.9 0.8
27/08:00pm 27.1 31.8 22.7 77 3.0 SSW 2 6 1 3 1007.7 1007.5 0.8
27/07:30pm 27.5 32.1 21.8 71 3.8 CALM 0 0 0 0 1007.6 1007.4 0.8
27/07:00pm 28.5 32.2 21.5 66 4.7 WSW 4 6 2 3 1007.3 1007.1 0.8
27/06:30pm 29.3 32.3 21.3 62 5.4 W 7 9 4 5 1007.3 1007.1 0.8
27/06:00pm 30.0 31.6 20.0 55 6.6 WNW 11 15 6 8 1006.9 1006.7 0.8
27/05:30pm 31.3 34.2 20.6 53 7.1 NNW 6 9 3 5 1006.9 1006.7 0.8
27/05:00pm 31.7 34.7 21.2 53 7.1 NNW 7 11 4 6 1006.9 1006.7 0.8
27/04:30pm 30.8 34.0 21.6 58 6.2 N 7 11 4 6 1007.0 1006.8 0.8
27/04:00pm 30.8 33.1 20.7 55 6.7 NNW 9 20 5 11 1007.3 1007.1 0.8
27/03:30pm 31.3 33.3 19.9 50 7.5 NNW 9 15 5 8 1007.3 1007.1 0.8
27/03:00pm 31.5 33.8 19.8 49 7.7 NE 7 13 4 7 1007.6 1007.4 0.8
27/02:30pm 30.2 32.8 20.4 55 6.5 NNE 7 11 4 6 1007.9 1007.7 0.8
27/02:00pm 30.1 33.1 20.9 57 6.1 ENE 6 11 3 6 1008.2 1008.0 0.8
27/01:30pm 29.3 32.0 20.7 59 5.7 ENE 7 13 4 7 1008.6 1008.4 0.8
27/01:00pm 28.2 29.7 19.7 60 5.5 E 11 15 6 8 1009.0 1008.8 0.8
27/12:30pm 27.6 29.3 20.2 64 4.9 ENE 11 15 6 8 1009.5 1009.3 0.8
27/12:00pm 26.9 29.8 20.7 69 4.1 NNE 6 11 3 6 1009.7 1009.5 0.8
27/11:30am 24.8 29.2 21.3 81 2.3 CALM 0 4 0 2 1010.0 1009.8 0.8
27/11:00am 23.4 26.0 20.1 82 2.1 WNW 6 7 3 4 1010.4 1010.2 0.8
27/10:30am 23.0 25.7 20.3 85 1.7 N 6 9 3 5 1010.5 1010.3 0.8
27/10:00am 22.5 25.3 20.8 90 1.1 N 7 11 4 6 1011.0 1010.8 0.6
27/09:30am 22.4 24.5 20.9 91 1.0 NE 11 15 6 8 1011.0 1010.8 0.6
27/09:00am 22.3 25.1 20.9 92 0.9 NE 7 13 4 7 1011.2 1011.0 46.0
27/08:30am 22.3 24.7 20.9 92 0.9 NE 9 13 5 7 1011.0 1010.8 45.4
27/08:00am 22.4 24.1 21.0 92 0.9 NNE 13 15 7 8 1011.0 1010.8 44.4
27/07:30am 22.7 24.6 21.3 92 0.9 NNE 13 19 7 10 1010.8 1010.6 43.4
27/07:00am 22.7 25.2 21.7 94 0.7 NNE 11 17 6 9 1010.2 1010.0 43.0
27/06:30am 22.8 23.8 21.8 94 0.7 NNE 19 26 10 14 1010.0 1009.8 40.8
27/06:00am 23.3 25.6 22.1 93 0.8 ENE 13 20 7 11 1009.4 1009.2 23.0
27/05:30am 23.7 24.1 21.8 89 1.3 NE 22 28 12 15 1008.0 1007.8 1.0
27/05:00am 25.6 29.6 20.6 74 3.3 CALM 0 0 0 0 1007.3 1007.1 0.0
27/04:30am 25.4 28.6 20.4 74 3.3 SSE 4 6 2 3 1007.1 1006.9 0.0
27/04:00am 25.5 28.9 20.1 72 3.5 E 2 9 1 5 1007.2 1007.0 0.0
27/03:30am 25.4 28.9 20.4 74 3.3 SSE 2 6 1 3 1007.1 1006.9 0.0
27/03:00am 25.0 28.9 20.3 75 3.1 CALM 0 0 0 0 1007.0 1006.8 0.0
27/02:30am 25.4 29.3 20.4 74 3.3 CALM 0 6 0 3 1007.0 1006.8 0.0
27/02:00am 25.8 29.7 20.4 72 3.5 CALM 0 6 0 3 1007.1 1006.9 0.0
27/01:30am 26.0 28.7 20.3 71 3.7 NE 6 9 3 5 1007.3 1007.1 0.0
27/01:00am 25.8 29.7 20.4 72 3.5 CALM 0 0 0 0 1007.6 1007.4 0.0
27/12:30am 25.8 28.6 20.4 72 3.5 E 6 7 3 4 1007.7 1007.5 0.0
27/12:00am 25.9 29.1 20.5 72 3.5 E 4 9 2 5 1008.0 1007.8 0.0
 
Date/Time
CST
Temp
°C
App
Temp
°C
Dew
Point
Rel
Hum
%
Delta-T
°C
Wind Press
QNH
hPa
Press
MSL
hPa
Rain
since 9 am
mm
Dir
 
Spd
km/h
Gust
km/h
Spd
kts
Gust
kts
26/11:30pm 26.0 28.9 20.6 72 3.5 E 6 6 3 3 1008.1 1007.9 0.0
26/11:00pm 25.9 28.4 20.2 71 3.7 ESE 7 7 4 4 1008.1 1007.9 0.0
26/10:30pm 26.1 29.4 20.0 69 4.0 ENE 2 7 1 4 1008.0 1007.8 0.0
26/10:00pm 26.6 28.8 19.5 65 4.6 N 7 9 4 5 1007.8 1007.6 0.0
26/09:30pm 26.0 29.0 19.2 66 4.4 ESE 2 6 1 3 1007.6 1007.4 0.0
26/09:00pm 26.5 28.8 19.4 65 4.6 NNW 6 9 3 5 1007.1 1006.9 0.0
26/08:30pm 26.2 27.8 19.1 65 4.6 SSE 9 13 5 7 1007.1 1006.9 0.0
26/08:00pm 26.9 29.4 19.0 62 5.1 S 4 9 2 5 1007.1 1006.9 0.0
26/07:30pm 27.5 28.3 19.0 59 5.5 SSE 13 17 7 9 1007.1 1006.9 0.0
26/07:00pm 27.5 28.3 19.8 63 5.0 S 15 20 8 11 1006.6 1006.3 0.0
26/06:30pm 30.1 32.3 19.5 53 6.9 SSW 7 32 4 17 1006.5 1006.2 0.0
26/06:00pm 31.5 34.2 22.2 57 6.3 W 11 19 6 10 1005.5 1005.2 0.0
26/05:30pm 32.0 34.3 22.7 58 6.4 W 15 22 8 12 1005.1 1004.8 0.0
26/05:00pm 32.7 34.6 22.8 56 6.8 WNW 17 24 9 13 1004.8 1004.5 0.0

Other Formats:

Comma delimited format used in spreadsheet applications
http://www.bom.gov.au/fwo/IDD60801/IDD60801.95111.axf

JavaScript Object Notation format (JSON) in row-major order
http://www.bom.gov.au/fwo/IDD60801/IDD60801.95111.json